UAAA

Almaty Airport

Almaty, Kazakhstan
TAF UAAA 251700Z 2518/2618 16005MPS 9999 SCT050CB BKN100 TX22/2609Z TN03/2601Z TEMPO 2518/2602 3000 BR FU BECMG 2602/2603 02006MPS TEMPO 2612/2618 3000 BR FU
Issued Valid From Valid To
Sep-25 @ 17:00 UTC
(2 hours ago)
Sep-25 @ 18:00 UTC
(an hour ago)
Sep-26 @ 18:00 UTC
(in 23 hours)
Sep-25 @ 18:00 to Sep-26 @ 02:00
TAF UAAA 251700Z 2518/2618 16005MPS 9999 SCT050CB BKN100 TX22/2609Z TN03/2601Z
Wind Visibility Clouds
160° at 10 knots 10,000+ meters
  • Scattered at 5,000' AGL
  • Broken at 10,000' AGL
Temporary Sep-25 @ 18:00 to Sep-26 @ 02:00
TEMPO 2518/2602 3000 BR FU
Visibility Conditions
2,993 meters
  • Mist
  • Smoke
Becoming Sep-26 @ 02:00 to Sep-26 @ 18:00
BECMG 2602/2603 02006MPS
Wind Visibility Clouds
20° at 12 knots 10,000+ meters
  • Scattered at 5,000' AGL
  • Broken at 10,000' AGL
Temporary Sep-26 @ 12:00 to Sep-26 @ 18:00
TEMPO 2612/2618 3000 BR FU
Visibility Conditions
2,993 meters
  • Mist
  • Smoke
TAF UAAA 251700Z 2518/2618 16005MPS 9999 SCT050CB BKN100 TX22/2609Z TN03/2601Z TEMPO 2518/2602 3000 BR FU BECMG 2602/2603 02006MPS TEMPO 2612/2618 3000 BR FU
Issued Sep-25 @ 17:00 UTC
(2 hours ago)
Valid From Sep-25 @ 18:00 UTC
(an hour ago)
Valid To Sep-26 @ 18:00 UTC
(in 23 hours)
Sep-25 @ 18:00 - Sep-26 @ 02:00
Wind Visibility
160° at 10 knots 10,000+ meters
Clouds
  • Scattered at 5,000' AGL
  • Broken at 10,000' AGL
Temporary Sep-25 @ 18:00 - Sep-26 @ 02:00
Conditions
  • Mist
  • Smoke
Becoming Sep-26 @ 02:00 - Sep-26 @ 18:00
Wind Visibility
20° at 12 knots 10,000+ meters
Clouds
  • Scattered at 5,000' AGL
  • Broken at 10,000' AGL
Temporary Sep-26 @ 12:00 - Sep-26 @ 18:00
Conditions
  • Mist
  • Smoke